createdAt,value
2022-10-04T00:02:19.613Z,0.90
2022-10-04T00:05:13.978Z,0.93
2022-10-04T00:07:47.738Z,1.00
2022-10-04T00:10:41.657Z,1.20
2022-10-04T00:13:33.350Z,1.08
2022-10-04T00:16:01.191Z,1.25
2022-10-04T00:18:47.388Z,1.05
2022-10-04T00:21:14.942Z,1.13
2022-10-04T00:23:51.378Z,1.45
2022-10-04T00:26:30.363Z,2.05
2022-10-04T00:28:57.558Z,1.00
2022-10-04T00:31:33.939Z,1.15
2022-10-04T00:34:16.464Z,1.13
2022-10-04T00:36:53.117Z,0.90
2022-10-04T00:39:41.359Z,1.00
2022-10-04T00:42:08.549Z,1.08
2022-10-04T00:45:03.413Z,1.40
2022-10-04T00:47:46.549Z,1.27
2022-10-04T00:50:52.362Z,0.88
2022-10-04T00:54:06.437Z,0.85
2022-10-04T00:56:53.710Z,0.88
2022-10-04T00:59:42.585Z,1.00
2022-10-04T01:02:20.625Z,1.00
2022-10-04T01:05:15.521Z,0.90
2022-10-04T01:07:58.487Z,1.00
2022-10-04T01:11:01.272Z,1.10
2022-10-04T01:14:01.500Z,0.98
2022-10-04T01:16:40.598Z,0.90
2022-10-04T01:19:30.780Z,1.17
2022-10-04T01:22:19.509Z,0.98
2022-10-04T01:24:53.639Z,1.05
2022-10-04T01:27:44.030Z,0.73
2022-10-04T01:30:22.830Z,0.95
2022-10-04T01:32:51.260Z,0.90
2022-10-04T01:35:26.909Z,1.10
2022-10-04T01:37:56.592Z,1.23
2022-10-04T01:40:24.052Z,1.05
2022-10-04T01:43:03.549Z,1.15
2022-10-04T01:45:42.030Z,1.05
2022-10-04T01:48:19.430Z,1.40
2022-10-04T01:51:02.759Z,1.02
2022-10-04T01:54:07.490Z,1.20
2022-10-04T01:56:54.380Z,1.25
2022-10-04T01:59:30.874Z,1.10
2022-10-04T02:02:26.380Z,1.10
2022-10-04T02:05:05.476Z,1.10
2022-10-04T02:07:37.030Z,1.13
2022-10-04T02:10:16.689Z,1.23
2022-10-04T02:12:51.830Z,1.38
2022-10-04T02:17:57.590Z,1.17
2022-10-04T02:20:34.780Z,1.60
2022-10-04T02:23:06.390Z,1.42
2022-10-04T02:25:42.330Z,1.30
2022-10-04T02:28:22.524Z,1.45
2022-10-04T02:31:17.951Z,1.42
2022-10-04T02:33:48.948Z,1.10
2022-10-04T02:36:24.683Z,1.15
2022-10-04T02:39:05.290Z,1.58
2022-10-04T02:41:47.380Z,1.23
2022-10-04T02:44:17.540Z,1.40
2022-10-04T02:47:05.400Z,1.58
2022-10-04T02:49:40.548Z,1.80
2022-10-04T02:52:28.370Z,2.08
2022-10-04T02:55:26.431Z,1.83
2022-10-04T02:58:01.040Z,1.80
2022-10-04T03:00:37.907Z,1.88
2022-10-04T03:03:16.919Z,1.80
2022-10-04T03:06:17.531Z,1.38
2022-10-04T03:08:51.049Z,1.65
2022-10-04T03:11:29.609Z,1.63
2022-10-04T03:14:07.439Z,1.45
2022-10-04T03:16:45.959Z,1.38
2022-10-04T03:19:22.480Z,1.75
2022-10-04T03:21:53.741Z,1.75
2022-10-04T03:24:31.791Z,1.70
2022-10-04T03:27:04.412Z,1.58
2022-10-04T03:29:41.539Z,1.30
2022-10-04T03:32:13.311Z,1.40
2022-10-04T03:34:51.899Z,1.48
2022-10-04T03:37:22.389Z,1.50
2022-10-04T03:39:59.440Z,1.67
2022-10-04T03:42:30.300Z,1.38
2022-10-04T03:45:09.460Z,1.45
2022-10-04T03:47:41.013Z,1.67
2022-10-04T03:50:33.490Z,1.65
2022-10-04T03:53:31.531Z,1.90
2022-10-04T03:56:25.810Z,1.67
2022-10-04T03:59:01.340Z,1.67
2022-10-04T04:02:08.597Z,2.20
2022-10-04T04:05:03.549Z,1.88
2022-10-04T04:07:41.510Z,1.95
2022-10-04T04:10:27.920Z,1.75
2022-10-04T04:13:08.460Z,1.73
2022-10-04T04:15:42.828Z,1.50
2022-10-04T04:18:29.711Z,1.85
2022-10-04T04:20:59.822Z,1.58
2022-10-04T04:23:46.971Z,1.40
2022-10-04T04:26:31.893Z,1.52
2022-10-04T04:29:22.483Z,1.17
2022-10-04T04:31:56.876Z,1.40
2022-10-04T04:34:39.580Z,1.33
2022-10-04T04:37:18.720Z,1.50
2022-10-04T04:39:52.751Z,1.48
2022-10-04T04:42:41.480Z,1.35
2022-10-04T04:45:26.427Z,1.55
2022-10-04T04:47:57.689Z,1.70
2022-10-04T04:50:42.605Z,1.50
2022-10-04T04:53:23.527Z,1.63
2022-10-04T04:56:18.206Z,1.50
2022-10-04T04:58:49.219Z,1.60
2022-10-04T05:01:44.859Z,1.75
2022-10-04T05:04:13.362Z,1.90
2022-10-04T05:06:49.501Z,1.75
2022-10-04T05:09:27.090Z,1.70
2022-10-04T05:12:04.439Z,2.05
2022-10-04T05:14:32.121Z,2.40
2022-10-04T05:17:06.612Z,2.10
2022-10-04T05:19:37.402Z,1.80
2022-10-04T05:22:19.457Z,1.90
2022-10-04T05:24:58.627Z,1.90
2022-10-04T05:27:35.777Z,2.10
2022-10-04T05:30:13.851Z,2.00
2022-10-04T05:33:03.039Z,1.75
2022-10-04T05:36:02.602Z,1.77
2022-10-04T05:38:35.756Z,1.60
2022-10-04T05:41:24.565Z,2.03
2022-10-04T05:43:52.589Z,1.73
2022-10-04T05:46:32.448Z,2.10
2022-10-04T05:49:08.433Z,2.03
2022-10-04T05:51:55.506Z,2.58
2022-10-04T05:54:47.448Z,1.67
2022-10-04T05:57:49.708Z,1.80
2022-10-04T06:01:00.935Z,1.88
2022-10-04T06:04:03.593Z,1.95
2022-10-04T06:06:59.462Z,1.95
2022-10-04T06:12:44.392Z,2.10
2022-10-04T06:15:33.339Z,1.75
2022-10-04T06:18:46.470Z,1.63
2022-10-04T06:21:29.086Z,1.85
2022-10-04T06:24:26.917Z,1.70
2022-10-04T06:27:33.975Z,1.40
2022-10-04T06:30:20.621Z,1.30
2022-10-04T06:33:10.815Z,1.55
2022-10-04T06:35:58.444Z,1.17
2022-10-04T06:38:46.455Z,1.75
2022-10-04T06:41:35.835Z,1.75
2022-10-04T06:44:17.659Z,1.27
2022-10-04T06:47:01.497Z,1.30
2022-10-04T06:49:38.111Z,1.65
2022-10-04T06:52:43.419Z,1.52
2022-10-04T06:55:33.440Z,1.70
2022-10-04T06:58:40.562Z,1.58
2022-10-04T07:01:08.336Z,1.23
2022-10-04T07:04:00.434Z,1.27
2022-10-04T07:07:22.536Z,1.30
2022-10-04T07:09:54.739Z,1.27
2022-10-04T07:12:28.646Z,0.98
2022-10-04T07:15:01.529Z,1.30
2022-10-04T07:17:44.884Z,1.55
2022-10-04T07:20:32.529Z,1.83
2022-10-04T07:23:13.511Z,1.58
2022-10-04T07:25:54.546Z,1.50
2022-10-04T07:28:53.606Z,1.52
2022-10-04T07:31:36.646Z,1.92
2022-10-04T07:34:25.701Z,2.45
2022-10-04T07:37:03.776Z,2.20
2022-10-04T07:40:06.494Z,1.85
2022-10-04T07:43:01.701Z,1.55
2022-10-04T07:45:46.683Z,1.98
2022-10-04T07:48:25.061Z,1.77
2022-10-04T07:51:10.373Z,1.20
2022-10-04T07:53:52.796Z,2.05
2022-10-04T07:56:38.539Z,1.45
2022-10-04T07:59:15.926Z,1.98
2022-10-04T08:02:09.811Z,1.60
2022-10-04T08:05:13.390Z,1.67
2022-10-04T08:08:12.691Z,1.60
2022-10-04T08:11:17.936Z,1.48
2022-10-04T08:14:16.533Z,1.75
2022-10-04T08:17:18.530Z,1.83
2022-10-04T08:19:55.198Z,1.67
2022-10-04T08:22:44.665Z,1.27
2022-10-04T08:25:23.592Z,1.10
2022-10-04T08:28:28.323Z,1.33
2022-10-04T08:31:36.446Z,1.33
2022-10-04T08:34:10.836Z,1.52
2022-10-04T08:36:47.001Z,1.67
2022-10-04T08:40:10.749Z,1.30
2022-10-04T08:43:07.690Z,1.13
2022-10-04T08:45:35.152Z,1.20
2022-10-04T08:48:53.542Z,1.65
2022-10-04T08:51:48.447Z,1.33
2022-10-04T08:54:47.272Z,1.48
2022-10-04T08:57:46.552Z,1.80
2022-10-04T09:00:40.386Z,1.55
2022-10-04T09:03:33.515Z,1.30
2022-10-04T09:06:49.479Z,1.23
2022-10-04T09:09:41.390Z,1.40
2022-10-04T09:12:20.468Z,1.10
2022-10-04T09:15:12.776Z,1.38
2022-10-04T09:18:03.211Z,1.70
2022-10-04T09:21:09.566Z,1.20
2022-10-04T09:23:46.452Z,1.17
2022-10-04T09:27:13.070Z,1.50
2022-10-04T09:30:26.511Z,1.38
2022-10-04T09:33:32.642Z,1.38
2022-10-04T09:36:31.041Z,1.23
2022-10-04T09:39:30.402Z,0.88
2022-10-04T09:42:31.446Z,1.30
2022-10-04T09:45:28.744Z,1.20
2022-10-04T09:48:14.810Z,1.20
2022-10-04T09:51:00.495Z,1.30
2022-10-04T09:53:53.222Z,1.40
2022-10-04T09:56:55.586Z,1.00
2022-10-04T09:59:37.683Z,1.20
2022-10-04T10:02:35.966Z,1.00
2022-10-04T10:05:12.121Z,1.00
2022-10-04T10:08:19.551Z,1.67
2022-10-04T10:11:20.750Z,1.05
2022-10-04T10:14:24.761Z,1.02
2022-10-04T10:17:44.625Z,1.00
2022-10-04T10:20:33.231Z,1.13
2022-10-04T10:23:53.009Z,1.13
2022-10-04T10:27:02.574Z,1.20
2022-10-04T10:29:57.839Z,0.88
2022-10-04T10:32:52.922Z,1.10
2022-10-04T10:35:36.564Z,1.10
2022-10-04T10:38:29.518Z,1.00
2022-10-04T10:41:41.552Z,0.80
2022-10-04T10:44:30.549Z,1.00
2022-10-04T10:47:29.959Z,1.00
2022-10-04T10:50:22.850Z,0.77
2022-10-04T10:53:20.984Z,0.65
2022-10-04T10:56:15.783Z,0.80
2022-10-04T10:59:08.583Z,0.50
2022-10-04T11:02:19.599Z,0.52
2022-10-04T11:04:55.028Z,0.57
2022-10-04T11:07:44.447Z,0.57
2022-10-04T11:10:39.685Z,0.50
2022-10-04T11:13:53.602Z,0.52
2022-10-04T11:16:23.624Z,0.45
2022-10-04T11:19:22.686Z,0.60
2022-10-04T11:22:08.847Z,0.40
2022-10-04T11:25:14.977Z,0.50
2022-10-04T11:28:03.477Z,0.65
2022-10-04T11:30:59.620Z,0.63
2022-10-04T11:33:49.617Z,0.50
2022-10-04T11:36:45.929Z,0.50
2022-10-04T11:39:34.331Z,0.40
2022-10-04T11:42:26.336Z,0.63
2022-10-04T11:45:30.556Z,0.55
2022-10-04T11:48:32.391Z,0.30
2022-10-04T11:51:38.736Z,0.82
2022-10-04T11:54:48.626Z,0.45
2022-10-04T11:57:37.647Z,0.60
2022-10-04T12:00:33.361Z,0.40
2022-10-04T12:03:25.333Z,0.47
2022-10-04T12:06:10.612Z,0.60
2022-10-04T12:12:11.432Z,0.30
2022-10-04T12:15:41.632Z,0.45
2022-10-04T12:18:53.201Z,0.35
2022-10-04T12:21:29.914Z,0.38
2022-10-04T12:24:14.516Z,0.38
2022-10-04T12:27:25.530Z,0.38
2022-10-04T12:30:38.225Z,0.30
2022-10-04T12:33:30.511Z,0.30
2022-10-04T12:36:25.685Z,0.35
2022-10-04T12:39:38.686Z,0.35
2022-10-04T12:42:19.310Z,0.30
2022-10-04T12:45:20.605Z,0.28
2022-10-04T12:47:56.145Z,0.30
2022-10-04T12:50:53.811Z,0.30
2022-10-04T12:53:24.349Z,0.30
2022-10-04T12:56:29.771Z,0.22
2022-10-04T12:59:22.673Z,0.22
2022-10-04T13:02:28.830Z,0.20
2022-10-04T13:05:04.492Z,0.32
2022-10-04T13:08:05.734Z,0.30
2022-10-04T13:11:01.244Z,0.20
2022-10-04T13:14:06.553Z,0.10
2022-10-04T13:20:29.518Z,0.20
2022-10-04T13:22:57.906Z,0.20
2022-10-04T13:25:52.723Z,0.10
2022-10-04T13:28:32.336Z,0.20
2022-10-04T13:31:31.649Z,0.20
2022-10-04T13:34:23.937Z,0.20
2022-10-04T13:37:18.700Z,0.10
2022-10-04T13:40:24.052Z,0.20
2022-10-04T13:43:28.031Z,0.30
2022-10-04T13:46:48.597Z,0.20
2022-10-04T13:49:43.588Z,0.20
2022-10-04T13:52:55.815Z,0.10
2022-10-04T13:56:08.736Z,0.10
2022-10-04T13:59:14.600Z,0.10
2022-10-04T14:01:56.665Z,0.20
2022-10-04T14:05:05.810Z,0.20
2022-10-04T14:08:19.447Z,0.13
2022-10-04T14:11:13.811Z,0.20
2022-10-04T14:14:07.588Z,0.10
2022-10-04T14:16:55.588Z,0.10
2022-10-04T14:20:04.891Z,0.20
2022-10-04T14:22:47.617Z,0.20
2022-10-04T14:25:21.625Z,0.20
2022-10-04T14:28:29.810Z,0.10
2022-10-04T14:31:06.437Z,0.20
2022-10-04T14:33:54.609Z,0.15
2022-10-04T14:36:41.345Z,0.10
2022-10-04T14:39:49.549Z,0.20
2022-10-04T14:42:31.555Z,0.20
2022-10-04T14:45:35.696Z,0.20
2022-10-04T14:48:31.557Z,0.10
2022-10-04T14:51:20.651Z,0.10
2022-10-04T14:54:01.027Z,0.10
2022-10-04T14:56:53.530Z,0.10
2022-10-04T14:59:36.347Z,0.13
2022-10-04T15:02:38.622Z,0.10
2022-10-04T15:05:39.626Z,0.10
2022-10-04T15:08:22.328Z,0.20
2022-10-04T15:11:12.507Z,0.10
2022-10-04T15:13:56.680Z,0.20
2022-10-04T15:17:06.997Z,0.10
2022-10-04T15:19:59.802Z,0.20
2022-10-04T15:22:40.821Z,0.20
2022-10-04T15:25:47.556Z,0.20
2022-10-04T15:28:27.015Z,0.20
2022-10-04T15:31:23.659Z,0.10
2022-10-04T15:34:12.821Z,0.10
2022-10-04T15:36:58.294Z,0.10
2022-10-04T15:39:58.284Z,0.10
2022-10-04T15:42:30.181Z,0.10
2022-10-04T15:45:25.512Z,0.10
2022-10-04T15:48:30.837Z,0.10
2022-10-04T15:51:12.980Z,0.10
2022-10-04T15:54:03.907Z,0.10
2022-10-04T15:56:59.801Z,0.10
2022-10-04T16:02:33.108Z,0.20
2022-10-04T16:05:27.983Z,0.20
2022-10-04T16:08:07.554Z,0.25
2022-10-04T16:11:14.650Z,0.10
2022-10-04T16:14:00.148Z,0.30
2022-10-04T16:19:16.587Z,0.20
2022-10-04T16:22:14.996Z,0.22
2022-10-04T16:24:54.367Z,0.20
2022-10-04T16:27:44.597Z,0.20
2022-10-04T16:30:28.094Z,0.15
2022-10-04T16:33:47.732Z,0.13
2022-10-04T16:36:22.947Z,0.28
2022-10-04T16:39:21.638Z,0.30
2022-10-04T16:42:06.668Z,0.40
2022-10-04T16:44:50.122Z,0.47
2022-10-04T16:47:54.098Z,0.32
2022-10-04T16:51:08.691Z,0.40
2022-10-04T16:54:23.552Z,0.52
2022-10-04T16:57:05.609Z,0.70
2022-10-04T17:00:07.711Z,0.80
2022-10-04T17:02:55.575Z,0.85
2022-10-04T17:05:50.332Z,0.82
2022-10-04T17:08:24.627Z,0.80
2022-10-04T17:11:27.197Z,0.80
2022-10-04T17:14:12.759Z,0.60
2022-10-04T17:17:07.867Z,0.68
2022-10-04T17:20:11.026Z,0.80
2022-10-04T17:22:53.058Z,0.93
2022-10-04T17:25:45.946Z,0.60
2022-10-04T17:28:26.147Z,1.00
2022-10-04T17:31:15.449Z,1.00
2022-10-04T17:33:53.053Z,1.50
2022-10-04T17:36:39.479Z,2.13
2022-10-04T17:39:34.664Z,2.40
2022-10-04T17:42:21.189Z,2.80
2022-10-04T17:45:11.243Z,2.42
2022-10-04T17:48:30.658Z,2.10
2022-10-04T17:51:39.653Z,1.90
2022-10-04T17:54:47.873Z,1.92
2022-10-04T17:57:47.694Z,1.85
2022-10-04T18:00:30.713Z,2.00
2022-10-04T18:03:16.773Z,1.52
2022-10-04T18:05:47.035Z,1.50
2022-10-04T18:08:32.834Z,1.38
2022-10-04T18:11:25.214Z,1.40
2022-10-04T18:14:08.360Z,1.33
2022-10-04T18:17:12.634Z,1.33
2022-10-04T18:19:55.415Z,1.48
2022-10-04T18:22:33.878Z,1.48
2022-10-04T18:25:30.675Z,2.03
2022-10-04T18:28:07.281Z,1.75
2022-10-04T18:30:58.968Z,2.75
2022-10-04T18:33:35.415Z,2.05
2022-10-04T18:36:29.824Z,1.80
2022-10-04T18:39:18.738Z,1.85
2022-10-04T18:41:58.149Z,1.83
2022-10-04T18:44:38.679Z,2.45
2022-10-04T18:47:34.553Z,1.70
2022-10-04T18:52:53.254Z,1.40
2022-10-04T18:55:51.224Z,2.17
2022-10-04T18:59:01.653Z,1.33
2022-10-04T19:01:56.485Z,2.05
2022-10-04T19:05:13.629Z,1.38
2022-10-04T19:08:07.974Z,1.75
2022-10-04T19:11:14.697Z,1.48
2022-10-04T19:14:19.519Z,1.48
2022-10-04T19:17:06.863Z,1.45
2022-10-04T19:20:09.677Z,1.23
2022-10-04T19:23:09.845Z,1.30
2022-10-04T19:26:09.885Z,1.38
2022-10-04T19:28:43.638Z,1.10
2022-10-04T19:31:54.086Z,1.25
2022-10-04T19:34:50.999Z,1.40
2022-10-04T19:37:35.575Z,1.38
2022-10-04T19:40:24.818Z,1.50
2022-10-04T19:42:52.044Z,1.52
2022-10-04T19:45:56.078Z,1.20
2022-10-04T19:48:28.819Z,1.17
2022-10-04T19:51:27.691Z,1.35
2022-10-04T19:54:04.138Z,1.30
2022-10-04T19:56:42.829Z,1.38
2022-10-04T19:59:35.438Z,1.30
2022-10-04T20:02:03.221Z,1.50
2022-10-04T20:04:45.754Z,1.23
2022-10-04T20:07:24.706Z,1.20
2022-10-04T20:10:16.324Z,1.98
2022-10-04T20:13:12.783Z,1.90
2022-10-04T20:15:40.504Z,1.70
2022-10-04T20:18:38.829Z,2.00
2022-10-04T20:21:16.833Z,1.83
2022-10-04T20:23:48.163Z,1.92
2022-10-04T20:27:02.779Z,2.00
2022-10-04T20:29:39.577Z,1.92
2022-10-04T20:32:15.687Z,2.05
2022-10-04T20:34:46.021Z,2.00
2022-10-04T20:37:23.735Z,2.00
2022-10-04T20:39:56.700Z,2.10
2022-10-04T20:42:36.682Z,2.20
2022-10-04T20:45:16.937Z,1.80
2022-10-04T20:48:01.738Z,2.20
2022-10-04T20:50:40.661Z,1.92
2022-10-04T20:53:29.723Z,1.95
2022-10-04T20:56:37.018Z,1.70
2022-10-04T20:59:11.707Z,1.63
2022-10-04T21:01:50.717Z,1.98
2022-10-04T21:04:33.902Z,1.83
2022-10-04T21:07:15.596Z,1.92
2022-10-04T21:09:43.168Z,1.80
2022-10-04T21:12:38.656Z,2.03
2022-10-04T21:15:07.663Z,2.22
2022-10-04T21:17:43.717Z,1.98
2022-10-04T21:20:35.397Z,1.88
2022-10-04T21:23:38.822Z,2.22
2022-10-04T21:26:23.893Z,2.03
2022-10-04T21:29:03.668Z,2.22
2022-10-04T21:31:31.022Z,1.70
2022-10-04T21:34:04.712Z,2.00
2022-10-04T21:36:32.063Z,1.83
2022-10-04T21:39:06.002Z,1.95
2022-10-04T21:41:33.125Z,2.22
2022-10-04T21:44:06.757Z,2.22
2022-10-04T21:46:34.908Z,2.10
2022-10-04T21:49:08.745Z,2.10
2022-10-04T21:51:46.907Z,1.98
2022-10-04T21:54:14.176Z,1.65
2022-10-04T21:57:01.717Z,2.10
2022-10-04T21:59:35.804Z,1.88
2022-10-04T22:02:03.973Z,2.00
2022-10-04T22:04:37.631Z,1.95
2022-10-04T22:07:05.175Z,1.92
2022-10-04T22:09:39.874Z,2.10
2022-10-04T22:12:07.070Z,1.80
2022-10-04T22:14:40.803Z,1.90
2022-10-04T22:17:07.951Z,2.58
2022-10-04T22:19:41.623Z,2.58
2022-10-04T22:22:16.700Z,2.45
2022-10-04T22:27:20.731Z,2.05
2022-10-04T22:29:54.748Z,1.90
2022-10-04T22:32:30.171Z,2.20
2022-10-04T22:35:18.175Z,1.80
2022-10-04T22:37:46.411Z,1.90
2022-10-04T22:40:32.718Z,1.65
2022-10-04T22:43:01.127Z,1.65
2022-10-04T22:45:31.625Z,2.03
2022-10-04T22:48:09.658Z,1.90
2022-10-04T22:50:38.183Z,1.73
2022-10-04T22:53:23.058Z,1.65
2022-10-04T22:56:10.033Z,1.95
2022-10-04T22:58:43.917Z,1.58
2022-10-04T23:01:18.479Z,1.63
2022-10-04T23:03:54.741Z,1.83
2022-10-04T23:06:21.851Z,1.80
2022-10-04T23:08:55.764Z,1.60
2022-10-04T23:11:22.968Z,1.77
2022-10-04T23:13:56.678Z,1.42
2022-10-04T23:16:30.795Z,1.77
2022-10-04T23:19:20.509Z,1.75
2022-10-04T23:21:56.685Z,1.67
2022-10-04T23:24:24.406Z,1.85
2022-10-04T23:27:03.917Z,1.60
2022-10-04T23:29:34.934Z,2.00
2022-10-04T23:32:19.156Z,1.65
2022-10-04T23:34:55.676Z,1.95
2022-10-04T23:37:34.527Z,1.45
2022-10-04T23:40:01.861Z,1.50
2022-10-04T23:42:38.701Z,2.15
2022-10-04T23:45:26.947Z,1.55
2022-10-04T23:48:03.812Z,1.70
2022-10-04T23:50:43.742Z,1.40
2022-10-04T23:53:30.801Z,1.77
2022-10-04T23:56:25.794Z,1.52
2022-10-04T23:58:55.724Z,1.60
